Time;durP1;ratioP1;P1;durP2;ratioP2;P2;SDS_P1;SDS_P2;PMS_P1;PMS_P2;Temp;Humidity;BMP_temperature;BMP_pressure;BME280_temperature;BME280_humidity;BME280_pressure;Samples;Min_cycle;Max_cycle;Signal;HPM_P1;HPM_P2
2022/01/22 00:02:14;;;;;;;7.80;6.97;;;;;;;17.38;37.19;98474.75;6118734;23;20185;-88
2022/01/22 00:04:41;;;;;;;9.20;7.13;;;;;;;17.53;37.48;98504.50;6088895;23;20200;-87
2022/01/22 00:07:09;;;;;;;8.00;7.00;;;;;;;17.38;37.29;98488.31;6065319;23;20222;-87
2022/01/22 00:09:51;;;;;;;9.67;7.57;;;;;;;17.85;37.40;98560.72;6068442;23;20172;-89
2022/01/22 00:12:41;;;;;;;7.77;6.97;;;;;;;17.82;37.41;98547.81;6090795;23;20194;-87
2022/01/22 00:15:10;;;;;;;10.27;6.97;;;;;;;17.54;37.59;98490.16;6070228;23;20200;-87
2022/01/22 00:17:36;;;;;;;7.37;6.53;;;;;;;17.84;37.36;98536.09;6066253;23;20454;-87
2022/01/22 01:03:15;;;;;;;8.43;7.17;;;;;;;16.03;37.50;98193.09;6151611;23;20209;-85
2022/01/22 01:05:42;;;;;;;7.93;6.90;;;;;;;17.32;37.72;98408.31;6099902;23;20209;-86
2022/01/22 01:08:08;;;;;;;7.47;6.77;;;;;;;17.18;37.47;98378.69;6076320;23;20233;-88
2022/01/22 01:10:35;;;;;;;8.87;7.00;;;;;;;17.04;37.41;98357.53;6099972;23;20186;-85
2022/01/22 01:13:02;;;;;;;7.80;6.90;;;;;;;17.60;37.11;98449.84;6075617;23;20179;-87
2022/01/22 01:15:42;;;;;;;8.20;6.67;;;;;;;16.95;37.09;98331.59;6075873;23;20194;-85
2022/01/22 01:59:13;;;;;;;8.97;7.07;;;;;;;17.99;37.59;98478.50;6107029;23;20482;-86
2022/01/22 02:01:40;;;;;;;7.93;7.13;;;;;;;17.45;37.36;98382.88;6097970;23;20178;-86
2022/01/22 02:04:10;;;;;;;7.20;6.50;;;;;;;18.07;37.09;98478.94;6082134;23;20270;-87
2022/01/22 02:06:36;;;;;;;8.57;6.90;;;;;;;17.73;37.48;98421.81;6069266;23;20179;-86
2022/01/22 02:09:07;;;;;;;7.57;6.77;;;;;;;17.82;37.23;98435.94;6046383;23;20261;-87
2022/01/22 02:11:34;;;;;;;7.13;6.27;;;;;;;17.64;36.93;98406.03;6071182;23;20167;-86
2022/01/22 02:14:11;;;;;;;8.53;7.07;;;;;;;17.51;37.36;98380.69;6093318;23;20257;-86
2022/01/22 02:24:57;;;;;;;7.37;6.57;;;;;;;17.64;37.22;98419.63;6034131;23;20225;-86
2022/01/22 02:27:23;;;;;;;7.87;6.57;;;;;;;18.27;37.21;98506.41;6070388;23;20202;-86
2022/01/22 02:29:50;;;;;;;8.40;7.60;;;;;;;17.89;37.32;98432.09;6070298;23;20246;-86
2022/01/22 02:35:06;;;;;;;8.13;7.27;;;;;;;18.12;37.62;98488.59;6095045;23;20722;-87
2022/01/22 02:37:37;;;;;;;7.53;6.50;;;;;;;17.69;37.25;98412.25;6073978;23;20174;-86
2022/01/22 02:40:12;;;;;;;8.27;7.40;;;;;;;17.63;37.45;98404.28;6094773;23;20682;-86
2022/01/22 02:42:39;;;;;;;7.70;6.90;;;;;;;17.93;37.39;98462.00;6071522;23;20198;-87
2022/01/22 02:45:11;;;;;;;7.93;6.97;;;;;;;18.09;37.12;98488.41;6046022;23;20675;-87
2022/01/22 02:47:38;;;;;;;8.63;7.57;;;;;;;18.05;37.26;98490.69;6073289;23;20559;-86
2022/01/22 02:50:05;;;;;;;8.00;7.20;;;;;;;18.24;37.32;98517.28;6046578;23;20210;-86
2022/01/22 02:52:32;;;;;;;7.53;6.83;;;;;;;18.06;37.57;98477.19;6093468;23;20681;-86
2022/01/22 02:55:00;;;;;;;7.40;6.60;;;;;;;17.83;37.76;98437.69;6045806;23;20282;-86
2022/01/22 02:57:27;;;;;;;8.50;7.70;;;;;;;18.03;37.32;98471.94;6047874;23;20164;-86
2022/01/22 02:59:53;;;;;;;9.07;7.30;;;;;;;17.74;37.67;98434.63;6071871;23;20198;-86
2022/01/22 03:02:20;;;;;;;7.87;7.07;;;;;;;18.06;37.23;98485.69;6095585;23;20643;-87
2022/01/22 03:04:47;;;;;;;8.13;7.33;;;;;;;17.55;37.65;98393.66;6094990;23;20253;-86
2022/01/22 03:07:13;;;;;;;8.80;7.93;;;;;;;17.35;37.64;98353.47;6072375;23;20183;-86
2022/01/22 03:09:43;;;;;;;8.07;7.27;;;;;;;17.74;37.58;98421.91;6071658;23;20214;-86
2022/01/22 03:22:22;;;;;;;8.57;7.67;;;;;;;17.48;37.90;98380.50;6071761;23;20174;-86
2022/01/22 03:27:34;;;;;;;8.50;7.70;;;;;;;18.09;37.41;98513.00;6078951;23;20209;-87
2022/01/22 03:30:01;;;;;;;8.93;7.83;;;;;;;17.71;37.59;98431.88;6072217;23;20517;-86
2022/01/22 04:10:22;;;;;;;9.00;8.17;;;;;;;17.61;37.53;98399.09;6107901;23;20531;-88
2022/01/22 04:13:00;;;;;;;8.87;8.00;;;;;;;17.37;37.54;98341.75;6100775;23;20290;-88
2022/01/22 04:15:29;;;;;;;8.97;8.13;;;;;;;17.99;38.17;98444.53;6073188;23;20659;-88
2022/01/22 04:28:38;;;;;;;8.90;8.10;;;;;;;17.68;37.81;98391.03;6070487;23;20210;-88
2022/01/22 04:31:05;;;;;;;9.27;8.37;;;;;;;18.08;37.80;98470.50;6071152;23;20219;-87
2022/01/22 04:33:31;;;;;;;9.23;8.33;;;;;;;17.87;37.50;98420.94;6070897;23;20250;-88
2022/01/22 04:35:58;;;;;;;9.03;8.23;;;;;;;17.73;37.70;98392.19;6071291;23;20179;-88
2022/01/22 04:38:24;;;;;;;8.97;8.17;;;;;;;17.70;37.56;98380.97;6047353;23;20207;-88
2022/01/22 04:40:51;;;;;;;9.40;8.50;;;;;;;17.82;37.38;98400.34;6047417;23;20182;-88
2022/01/22 04:43:18;;;;;;;9.50;8.60;;;;;;;18.08;37.61;98445.97;6070698;23;20203;-88
2022/01/22 04:56:23;;;;;;;9.70;8.80;;;;;;;18.20;37.80;98471.22;6078095;23;20262;-88
2022/01/22 04:58:50;;;;;;;8.87;8.07;;;;;;;18.35;37.29;98504.31;6047152;23;20222;-88
2022/01/22 05:01:17;;;;;;;8.37;7.63;;;;;;;17.95;37.68;98438.41;6047127;23;20219;-88
2022/01/22 05:03:43;;;;;;;9.67;8.87;;;;;;;17.97;37.22;98441.06;6046694;23;20277;-87
2022/01/22 05:06:10;;;;;;;9.70;8.80;;;;;;;18.23;37.21;98482.44;6041525;23;20254;-88
2022/01/22 05:08:36;;;;;;;9.77;8.97;;;;;;;18.11;37.65;98474.13;6042048;23;20519;-88
2022/01/22 05:11:03;;;;;;;9.17;8.37;;;;;;;17.93;37.96;98445.09;6065382;23;20179;-87
2022/01/22 05:13:30;;;;;;;9.67;8.83;;;;;;;17.62;37.51;98375.44;6064325;23;20211;-87
2022/01/22 05:15:56;;;;;;;9.20;8.30;;;;;;;17.96;37.45;98430.00;6042064;23;20199;-88
2022/01/22 05:18:23;;;;;;;9.33;8.50;;;;;;;17.85;37.87;98422.53;6065376;23;20192;-88
2022/01/22 05:20:58;;;;;;;9.47;8.67;;;;;;;17.85;37.26;98427.59;6066022;23;20802;-87
2022/01/22 05:23:26;;;;;;;9.17;8.30;;;;;;;18.33;37.84;98504.22;6045937;23;20223;-88
2022/01/22 05:26:00;;;;;;;9.17;8.37;;;;;;;18.12;37.61;98463.16;6088739;23;20167;-88
2022/01/22 05:39:11;;;;;;;9.80;9.00;;;;;;;18.04;37.69;98431.31;6069323;23;20194;-88
2022/01/22 05:41:39;;;;;;;9.10;8.30;;;;;;;18.18;37.63;98460.09;6066194;23;20198;-88
2022/01/22 05:44:06;;;;;;;9.13;8.37;;;;;;;17.97;37.56;98433.44;6064849;23;20203;-89
2022/01/22 05:46:33;;;;;;;9.27;8.47;;;;;;;17.78;37.73;98405.16;6044961;23;20223;-87
2022/01/22 05:48:59;;;;;;;9.30;8.40;;;;;;;18.23;37.71;98485.78;6068871;23;20588;-87
2022/01/22 05:51:26;;;;;;;9.17;8.27;;;;;;;18.39;37.99;98513.91;6069431;23;20263;-86
2022/01/22 06:01:52;;;;;;;9.83;8.93;;;;;;;18.01;37.81;98450.59;6090669;23;20203;-87
2022/01/22 06:04:19;;;;;;;8.50;7.70;;;;;;;17.87;38.12;98428.59;6066632;23;20746;-87
2022/01/22 06:06:45;;;;;;;8.80;8.00;;;;;;;17.72;38.31;98403.16;6067757;23;20179;-87
2022/01/22 06:09:12;;;;;;;9.17;8.23;;;;;;;17.36;37.99;98342.53;6069422;23;20217;-87
2022/01/22 06:11:53;;;;;;;8.83;8.00;;;;;;;17.66;38.31;98407.91;6070050;23;20180;-89
2022/01/22 06:14:20;;;;;;;9.90;9.00;;;;;;;17.61;38.52;98390.59;6051147;23;20196;-88
2022/01/22 06:16:46;;;;;;;9.20;8.40;;;;;;;17.89;38.50;98437.19;6069404;23;20188;-90
2022/01/22 06:19:13;;;;;;;9.43;8.53;;;;;;;17.83;37.97;98419.88;6045068;23;20176;-88
2022/01/22 06:21:40;;;;;;;9.10;8.20;;;;;;;17.42;38.49;98354.72;6044018;23;20180;-87
2022/01/22 06:24:06;;;;;;;8.87;8.17;;;;;;;18.01;38.52;98464.22;6091987;23;20194;-88
2022/01/22 06:26:35;;;;;;;9.47;8.57;;;;;;;17.48;38.52;98377.97;6043774;23;20175;-88
2022/01/22 06:29:03;;;;;;;9.10;8.30;;;;;;;18.12;38.50;98505.53;6070189;23;20176;-88
2022/01/22 06:31:30;;;;;;;9.07;8.27;;;;;;;17.63;38.10;98419.53;6047191;23;20235;-88
2022/01/22 06:33:58;;;;;;;8.90;8.10;;;;;;;17.45;38.48;98404.09;6046426;23;20266;-90
2022/01/22 06:36:26;;;;;;;9.03;8.13;;;;;;;18.09;38.26;98524.00;6048148;23;20339;-89
2022/01/22 06:38:58;;;;;;;9.43;8.53;;;;;;;18.23;38.47;98535.00;6096379;23;20179;-88
2022/01/22 07:27:21;;;;;;;4.97;4.57;;;;;;;16.47;39.63;98309.97;6151742;23;20697;-88
2022/01/22 07:29:49;;;;;;;5.20;4.70;;;;;;;17.16;38.75;98420.88;6075937;23;20229;-88
2022/01/22 07:32:26;;;;;;;4.53;4.13;;;;;;;17.49;38.34;98486.44;6074642;23;20796;-89
2022/01/22 07:34:53;;;;;;;5.10;4.33;;;;;;;17.71;38.12;98522.56;6079177;23;20198;-89
2022/01/22 07:37:19;;;;;;;4.60;4.20;;;;;;;17.97;38.11;98579.25;6078403;23;20205;-88
2022/01/22 07:39:46;;;;;;;4.33;3.93;;;;;;;17.39;37.85;98486.66;6102582;23;20209;-88
2022/01/22 07:42:12;;;;;;;4.40;4.00;;;;;;;17.73;37.91;98554.00;6077510;23;20197;-88
2022/01/22 07:44:39;;;;;;;4.13;3.77;;;;;;;17.59;37.73;98532.84;6078306;23;20194;-87
2022/01/22 07:47:05;;;;;;;3.73;3.43;;;;;;;17.70;37.87;98564.88;6079188;23;20209;-88
2022/01/22 07:49:32;;;;;;;4.50;4.20;;;;;;;17.65;37.75;98575.56;6081023;23;20556;-89
2022/01/22 07:51:59;;;;;;;3.90;3.60;;;;;;;17.67;38.06;98579.06;6080471;23;20974;-86
2022/01/22 07:54:25;;;;;;;4.00;3.63;;;;;;;17.73;37.75;98594.69;6103024;23;20205;-88
2022/01/22 07:56:52;;;;;;;4.03;3.70;;;;;;;17.62;37.47;98588.09;6127234;23;20228;-89
2022/01/22 07:59:18;;;;;;;6.47;3.80;;;;;;;17.60;37.45;98592.19;6079999;23;20201;-88
2022/01/22 08:01:45;;;;;;;4.43;4.03;;;;;;;17.61;37.08;98589.75;6102285;23;20220;-88
2022/01/22 08:04:12;;;;;;;4.10;3.80;;;;;;;17.38;37.78;98556.91;6078551;23;20225;-87
2022/01/22 08:06:38;;;;;;;4.40;4.00;;;;;;;17.52;38.01;98591.72;6103922;23;20205;-89
2022/01/22 08:09:05;;;;;;;4.30;3.90;;;;;;;17.41;37.52;98582.50;6081185;23;20302;-89
2022/01/22 08:11:31;;;;;;;4.23;3.93;;;;;;;17.52;37.69;98601.88;6080556;23;20823;-89
2022/01/22 08:13:58;;;;;;;5.87;3.70;;;;;;;17.25;37.46;98562.03;6079223;23;20282;-88
2022/01/22 08:16:25;;;;;;;4.57;4.17;;;;;;;17.18;37.76;98552.28;6079841;23;20600;-89
2022/01/22 08:18:52;;;;;;;4.20;3.90;;;;;;;17.00;37.88;98524.84;6103702;23;20634;-87
2022/01/22 08:21:18;;;;;;;4.30;3.90;;;;;;;17.02;37.57;98528.38;6078488;23;20201;-89
2022/01/22 08:23:45;;;;;;;4.50;3.83;;;;;;;16.81;37.85;98496.56;6078464;23;20221;-89
2022/01/22 08:26:17;;;;;;;4.77;4.20;;;;;;;17.15;37.92;98558.81;6079071;23;20209;-89
2022/01/22 08:29:01;;;;;;;4.50;4.10;;;;;;;16.80;37.88;98504.94;6082764;23;20190;-88
2022/01/22 08:36:44;;;;;;;3.87;3.57;;;;;;;17.13;38.29;98583.25;6112586;23;20229;-89
2022/01/22 08:39:10;;;;;;;3.83;3.53;;;;;;;17.08;37.79;98577.88;6081209;23;20600;-89
2022/01/22 08:41:37;;;;;;;3.80;3.50;;;;;;;17.17;37.68;98596.22;6080834;23;20178;-89
2022/01/22 08:44:04;;;;;;;3.60;3.30;;;;;;;17.29;38.14;98614.78;6104633;23;20602;-89
2022/01/22 08:46:31;;;;;;;4.10;3.80;;;;;;;16.85;38.02;98539.13;6104789;23;20654;-89
2022/01/22 08:48:58;;;;;;;5.43;4.37;;;;;;;17.09;37.02;98592.34;6104431;23;20237;-89
2022/01/22 08:51:24;;;;;;;4.53;4.13;;;;;;;16.90;37.48;98566.56;6080696;23;20178;-89
2022/01/22 08:53:51;;;;;;;4.67;4.27;;;;;;;16.95;37.88;98595.66;6080506;23;20201;-88
2022/01/22 08:56:18;;;;;;;4.90;4.40;;;;;;;17.14;37.59;98618.91;6079257;23;20212;-89
2022/01/22 08:58:44;;;;;;;4.93;4.47;;;;;;;16.75;37.99;98562.19;6099767;23;20183;-90
2022/01/22 09:01:11;;;;;;;4.43;4.03;;;;;;;17.07;38.04;98620.94;6102098;23;20220;-90
2022/01/22 09:03:38;;;;;;;4.20;3.80;;;;;;;17.06;37.83;98632.78;6075037;23;20206;-90
2022/01/22 09:06:05;;;;;;;4.33;3.93;;;;;;;17.07;38.38;98636.19;6075443;23;20202;-90
2022/01/22 09:08:31;;;;;;;4.87;4.47;;;;;;;17.23;38.01;98671.97;6099500;23;20253;-90
2022/01/22 09:10:58;;;;;;;4.53;4.13;;;;;;;17.24;38.06;98676.25;6075796;23;20209;-90
2022/01/22 09:13:25;;;;;;;4.37;3.97;;;;;;;16.63;38.32;98568.97;6075981;23;20202;-90
2022/01/22 09:15:53;;;;;;;4.47;4.10;;;;;;;17.05;38.30;98646.25;6074136;23;20206;-90
2022/01/22 09:18:20;;;;;;;4.30;3.90;;;;;;;16.98;37.96;98646.66;6075072;23;20447;-89
2022/01/22 09:23:17;;;;;;;4.60;4.20;;;;;;;16.96;37.83;98662.56;6104395;23;20222;-90
2022/01/22 09:25:46;;;;;;;4.07;3.77;;;;;;;16.66;37.91;98614.84;6079120;23;20190;-90
2022/01/22 09:28:13;;;;;;;4.10;3.80;;;;;;;16.88;38.64;98662.06;6078944;23;20673;-90
2022/01/22 09:30:40;;;;;;;3.77;3.47;;;;;;;16.73;38.36;98650.03;6079323;23;20596;-89
2022/01/22 09:33:07;;;;;;;3.80;3.50;;;;;;;16.80;38.56;98668.28;6078494;23;20504;-88
2022/01/22 09:35:34;;;;;;;3.87;3.57;;;;;;;16.72;38.72;98659.28;6099601;23;20198;-88
2022/01/22 09:38:00;;;;;;;4.27;3.87;;;;;;;16.43;38.49;98626.00;6076103;23;20198;-88
2022/01/22 09:40:28;;;;;;;3.87;3.57;;;;;;;16.53;38.37;98650.34;6078255;23;20197;-88
2022/01/22 09:42:55;;;;;;;4.50;3.73;;;;;;;16.75;38.36;98705.19;6098568;23;20265;-88
2022/01/22 09:45:22;;;;;;;4.63;4.23;;;;;;;16.67;38.22;98692.78;6075710;23;20557;-89
2022/01/22 09:47:49;;;;;;;5.90;4.80;;;;;;;16.78;38.38;98717.22;6075716;23;20253;-89
2022/01/22 09:50:17;;;;;;;5.13;4.73;;;;;;;16.62;38.53;98696.66;6101238;23;20205;-84
2022/01/22 09:52:47;;;;;;;5.27;4.37;;;;;;;16.66;38.81;98713.84;6099419;23;20209;-84
2022/01/22 09:55:13;;;;;;;4.63;4.23;;;;;;;16.50;38.83;98700.91;6075663;23;20276;-87
2022/01/22 09:57:40;;;;;;;4.37;4.00;;;;;;;16.58;38.70;98723.47;6122443;23;20195;-87
2022/01/22 10:00:08;;;;;;;4.27;3.97;;;;;;;16.62;38.17;98740.69;6100212;23;20250;-87
2022/01/22 10:02:40;;;;;;;4.97;3.93;;;;;;;16.27;38.89;98684.09;6101886;23;20618;-87
2022/01/22 10:05:25;;;;;;;4.10;3.70;;;;;;;16.35;39.25;98701.59;6076467;23;20201;-87
2022/01/22 10:07:53;;;;;;;4.63;4.20;;;;;;;16.31;39.33;98698.72;6076519;23;20241;-89
2022/01/22 10:10:20;;;;;;;5.00;4.33;;;;;;;16.43;39.23;98713.19;6077221;23;20294;-87
2022/01/22 10:12:53;;;;;;;5.37;4.87;;;;;;;16.51;39.29;98721.31;6075786;23;20682;-86
2022/01/22 10:15:21;;;;;;;4.73;4.33;;;;;;;16.00;39.29;98632.41;6101421;23;20194;-85
2022/01/22 10:17:52;;;;;;;5.67;3.97;;;;;;;16.40;39.08;98705.31;6100914;23;20238;-85
2022/01/22 10:20:26;;;;;;;4.83;4.43;;;;;;;16.56;39.23;98730.13;6078478;23;20216;-87
2022/01/22 10:23:02;;;;;;;4.70;4.30;;;;;;;16.33;39.18;98695.56;6125503;23;20189;-86
2022/01/22 10:25:42;;;;;;;4.90;4.47;;;;;;;16.53;39.43;98735.00;6102730;23;20162;-87
2022/01/22 10:28:14;;;;;;;4.90;4.40;;;;;;;16.22;39.67;98682.88;6121629;23;20217;-87
2022/01/22 10:30:43;;;;;;;4.57;4.20;;;;;;;16.35;40.01;98701.59;6098037;23;20159;-86
2022/01/22 10:33:32;;;;;;;4.70;4.13;;;;;;;16.29;39.82;98702.84;6096284;23;20199;-86
2022/01/22 10:36:20;;;;;;;4.33;3.97;;;;;;;15.92;39.95;98637.69;6121847;23;20730;-85
2022/01/22 10:38:51;;;;;;;4.97;4.43;;;;;;;16.33;39.89;98699.72;6097355;23;20767;-87
2022/01/22 10:41:38;;;;;;;5.90;5.30;;;;;;;16.33;40.37;98684.50;6097171;23;20166;-89
2022/01/22 10:44:08;;;;;;;5.77;4.70;;;;;;;16.02;40.35;98622.34;6072867;23;20199;-88
2022/01/22 10:49:24;;;;;;;5.37;4.93;;;;;;;16.41;40.33;98673.22;6098004;23;20162;-88
2022/01/22 10:52:07;;;;;;;5.63;5.13;;;;;;;16.73;39.92;98727.06;6097331;23;20170;-87
2022/01/22 10:54:35;;;;;;;5.23;4.73;;;;;;;16.61;39.81;98703.38;6097491;23;20203;-87
2022/01/22 10:57:12;;;;;;;5.47;5.07;;;;;;;16.82;40.06;98737.84;6097010;23;20191;-86
2022/01/22 10:59:45;;;;;;;5.27;4.77;;;;;;;16.67;40.28;98701.25;6122044;23;20175;-87
2022/01/22 11:02:12;;;;;;;5.43;4.93;;;;;;;16.63;40.26;98694.22;6096189;23;20611;-88
2022/01/22 11:04:41;;;;;;;5.43;4.93;;;;;;;16.71;40.50;98702.34;6073612;23;20195;-89
2022/01/22 11:07:09;;;;;;;5.87;5.00;;;;;;;16.70;39.91;98691.31;6071433;23;20179;-87
2022/01/22 11:09:56;;;;;;;5.30;4.80;;;;;;;16.80;40.13;98697.88;6080958;23;20175;-87
2022/01/22 11:12:22;;;;;;;6.17;5.03;;;;;;;16.85;40.00;98707.56;6096503;23;20186;-86
2022/01/22 11:14:49;;;;;;;5.33;4.60;;;;;;;16.81;39.94;98692.88;6073119;23;20597;-87
2022/01/22 11:17:15;;;;;;;6.47;4.67;;;;;;;16.87;40.40;98700.91;6096618;23;20223;-87
2022/01/22 11:19:46;;;;;;;6.10;5.10;;;;;;;16.82;39.82;98684.53;6075490;23;20202;-86
2022/01/22 11:22:14;;;;;;;5.07;4.67;;;;;;;17.05;40.09;98716.50;6075077;23;20631;-87
2022/01/22 11:24:45;;;;;;;5.77;4.43;;;;;;;17.05;40.21;98708.88;6098057;23;20226;-87
2022/01/22 11:27:15;;;;;;;5.77;4.67;;;;;;;16.89;39.96;98675.63;6075206;23;20258;-86
2022/01/22 11:29:54;;;;;;;4.70;4.30;;;;;;;17.22;40.02;98739.66;6098160;23;20179;-88
2022/01/22 11:32:26;;;;;;;4.73;4.30;;;;;;;17.25;40.07;98729.69;6098674;23;20242;-86
2022/01/22 11:34:55;;;;;;;4.73;4.10;;;;;;;17.09;39.69;98698.13;6074569;23;20278;-86
2022/01/22 11:37:36;;;;;;;4.53;4.13;;;;;;;17.28;39.70;98732.44;6075564;23;20246;-86
2022/01/22 11:40:10;;;;;;;4.53;4.13;;;;;;;17.31;39.94;98739.38;6121824;23;20164;-86
2022/01/22 11:43:06;;;;;;;4.37;4.07;;;;;;;17.33;40.13;98755.59;6124059;23;20206;-89
2022/01/22 11:45:38;;;;;;;5.23;4.37;;;;;;;17.25;39.73;98734.78;6101480;23;20166;-89
2022/01/22 11:48:15;;;;;;;4.47;4.07;;;;;;;17.03;39.91;98685.03;6101079;23;20155;-90
2022/01/22 11:50:45;;;;;;;4.43;4.03;;;;;;;17.00;39.90;98683.19;6124168;23;20222;-90
2022/01/22 11:53:42;;;;;;;4.33;3.97;;;;;;;17.10;39.62;98695.69;6100774;23;20167;-90
2022/01/22 11:56:12;;;;;;;5.87;3.67;;;;;;;17.40;39.71;98752.66;6083672;23;20259;-91
2022/01/22 11:58:57;;;;;;;4.37;3.93;;;;;;;17.42;39.62;98757.09;6124718;23;20175;-91
2022/01/22 12:04:15;;;;;;;5.83;5.00;;;;;;;16.81;39.44;98641.25;6124150;23;20195;-92
2022/01/22 12:07:00;;;;;;;5.90;5.30;;;;;;;17.44;39.18;98753.00;6078601;23;20238;-87
2022/01/22 12:15:07;;;;;;;8.90;5.33;;;;;;;16.86;39.24;98648.38;6125056;23;20215;-89
2022/01/22 12:17:50;;;;;;;6.87;4.63;;;;;;;17.45;39.20;98738.66;6075458;23;20270;-88
2022/01/22 12:23:08;;;;;;;5.90;4.93;;;;;;;16.95;39.91;98658.25;6124545;23;20155;-88
2022/01/22 12:25:34;;;;;;;5.53;4.77;;;;;;;17.47;39.60;98749.81;6098264;23;20214;-88
2022/01/22 12:28:02;;;;;;;5.60;4.63;;;;;;;17.19;39.83;98700.47;6122309;23;20211;-88
2022/01/22 12:30:44;;;;;;;8.37;4.63;;;;;;;17.03;40.06;98673.22;6095637;23;20201;-88
2022/01/22 12:33:13;;;;;;;5.53;4.67;;;;;;;17.10;39.65;98683.00;6095195;23;20222;-88
2022/01/22 12:35:40;;;;;;;7.43;4.73;;;;;;;17.46;39.63;98750.56;6094126;23;20642;-88
2022/01/22 12:38:49;;;;;;;4.83;4.30;;;;;;;17.51;39.62;98754.28;6118941;23;20293;-89
2022/01/22 12:44:08;;;;;;;5.90;4.40;;;;;;;17.53;40.16;98760.34;6098105;23;20656;-89
2022/01/22 12:46:48;;;;;;;6.37;4.50;;;;;;;17.31;40.34;98719.94;6097824;23;20163;-89
2022/01/22 12:49:15;;;;;;;4.40;4.00;;;;;;;16.95;40.33;98659.13;6094310;23;20210;-88
2022/01/22 12:51:42;;;;;;;4.90;4.33;;;;;;;17.47;40.30;98735.41;6094563;23;20167;-88
2022/01/22 12:54:08;;;;;;;6.50;4.40;;;;;;;17.40;40.21;98720.53;6088915;23;20210;-89
2022/01/22 12:57:03;;;;;;;4.27;3.87;;;;;;;17.30;40.34;98694.44;6092899;23;20198;-88
2022/01/22 13:48:09;;;;;;;3.37;3.07;;;;;;;17.48;40.48;98694.00;6076413;23;20252;-88
2022/01/22 13:50:49;;;;;;;5.83;3.53;;;;;;;17.71;39.91;98728.47;6083160;23;20249;-87
2022/01/22 13:53:16;;;;;;;4.43;3.97;;;;;;;17.78;39.98;98739.13;6074378;23;20229;-87
2022/01/22 13:55:42;;;;;;;4.87;3.50;;;;;;;17.22;40.20;98647.31;6098598;23;20252;-86
2022/01/22 13:58:18;;;;;;;3.90;3.57;;;;;;;17.64;40.07;98714.50;6101165;23;20190;-88
2022/01/22 14:00:45;;;;;;;3.63;3.30;;;;;;;17.75;40.23;98725.34;6098236;23;20409;-87
2022/01/22 14:03:38;;;;;;;3.80;3.40;;;;;;;17.48;39.96;98676.19;6085896;23;20198;-87
2022/01/22 14:06:06;;;;;;;4.43;3.20;;;;;;;17.57;40.09;98698.75;6077672;23;20626;-87
2022/01/22 14:08:34;;;;;;;3.90;3.50;;;;;;;17.33;40.13;98653.97;6074273;23;20228;-87
2022/01/22 14:11:04;;;;;;;4.00;3.43;;;;;;;17.39;40.22;98656.91;6075647;23;20190;-88
2022/01/22 14:13:31;;;;;;;4.37;3.37;;;;;;;17.38;40.10;98656.00;6122993;23;20202;-87
2022/01/22 14:16:12;;;;;;;4.37;3.43;;;;;;;17.87;40.25;98747.34;6097481;23;20218;-87
2022/01/22 14:18:40;;;;;;;4.00;3.70;;;;;;;17.42;40.25;98668.16;6075442;23;20186;-87
2022/01/22 14:21:16;;;;;;;3.87;3.40;;;;;;;17.96;40.23;98755.53;6074776;23;20205;-87
2022/01/22 14:23:43;;;;;;;4.27;3.33;;;;;;;17.11;40.42;98612.75;6098580;23;20625;-87
2022/01/22 14:26:12;;;;;;;4.67;3.47;;;;;;;17.75;39.87;98715.16;6074243;23;20265;-87
2022/01/22 14:28:54;;;;;;;3.47;3.17;;;;;;;17.74;40.19;98719.38;6074737;23;20213;-87
2022/01/22 14:31:29;;;;;;;3.37;3.07;;;;;;;17.62;40.47;98705.88;6076350;23;20553;-87
2022/01/22 14:34:31;;;;;;;4.40;3.30;;;;;;;17.95;40.57;98769.03;6097401;23;20201;-87
2022/01/22 14:36:58;;;;;;;3.63;3.33;;;;;;;17.74;40.35;98736.31;6114225;23;20202;-88
2022/01/22 14:44:44;;;;;;;3.70;3.40;;;;;;;17.76;40.45;98735.59;6106076;23;20202;-87
2022/01/22 14:47:14;;;;;;;3.83;3.43;;;;;;;17.98;40.25;98773.44;6074816;23;20202;-87
2022/01/22 14:49:45;;;;;;;3.73;3.00;;;;;;;17.74;40.52;98739.69;6123128;23;20617;-87
2022/01/22 14:52:13;;;;;;;3.53;3.20;;;;;;;17.50;40.29;98687.31;6121255;23;20594;-87
2022/01/22 14:54:41;;;;;;;3.53;3.23;;;;;;;16.96;40.30;98589.78;6099624;23;20264;-87
2022/01/22 14:57:09;;;;;;;3.50;3.20;;;;;;;17.78;40.55;98736.59;6076713;23;20233;-87
2022/01/22 14:59:36;;;;;;;3.77;3.47;;;;;;;17.88;40.34;98759.25;6076391;23;20189;-87
2022/01/22 15:02:04;;;;;;;3.37;3.07;;;;;;;17.82;39.99;98745.28;6124691;23;20174;-87
2022/01/22 15:04:31;;;;;;;3.40;3.10;;;;;;;17.47;40.27;98694.75;6100290;23;20202;-87
2022/01/22 15:06:58;;;;;;;4.47;3.30;;;;;;;17.49;40.67;98702.47;6075452;23;20221;-88
2022/01/22 15:09:25;;;;;;;3.80;3.40;;;;;;;17.22;40.23;98650.75;6079126;23;20212;-87
2022/01/22 15:11:52;;;;;;;3.60;3.30;;;;;;;17.78;40.80;98762.03;6104352;23;20179;-87
2022/01/22 15:14:19;;;;;;;3.47;3.17;;;;;;;17.28;40.87;98662.94;6102904;23;20198;-87
2022/01/22 15:17:13;;;;;;;3.50;3.20;;;;;;;17.20;41.10;98652.31;6083011;23;20151;-86
2022/01/22 15:19:39;;;;;;;3.40;3.03;;;;;;;17.75;40.97;98763.47;6112295;23;20205;-86
2022/01/22 15:22:09;;;;;;;4.73;2.97;;;;;;;17.20;41.11;98665.00;6081833;23;20174;-89
2022/01/22 15:24:37;;;;;;;3.60;3.30;;;;;;;17.69;40.69;98748.72;6083403;23;20198;-90
2022/01/22 15:27:04;;;;;;;3.27;2.97;;;;;;;17.75;40.64;98771.09;6081709;23;20942;-89
2022/01/22 15:29:30;;;;;;;5.10;3.07;;;;;;;17.70;40.72;98760.63;6082064;23;20642;-89
2022/01/22 15:34:57;;;;;;;5.60;3.60;;;;;;;17.41;41.06;98706.16;6114019;23;20216;-89
2022/01/22 15:37:24;;;;;;;4.07;3.30;;;;;;;17.95;41.02;98791.06;6085321;23;20193;-88
2022/01/22 15:39:50;;;;;;;6.47;3.90;;;;;;;17.45;40.77;98703.97;6081789;23;20209;-87
2022/01/22 15:42:17;;;;;;;5.33;3.13;;;;;;;17.28;40.77;98678.19;6082050;23;20197;-88
2022/01/22 15:44:43;;;;;;;5.10;3.10;;;;;;;17.73;40.70;98758.28;6081016;23;20734;-87
2022/01/22 15:47:10;;;;;;;4.00;3.10;;;;;;;17.76;41.06;98761.03;6081740;23;20229;-89
2022/01/22 15:49:40;;;;;;;5.37;3.60;;;;;;;17.23;41.00;98687.22;6105016;23;20170;-89
2022/01/22 15:52:06;;;;;;;3.13;2.90;;;;;;;17.81;41.08;98784.22;6082245;23;20198;-89
2022/01/22 15:54:33;;;;;;;4.17;3.40;;;;;;;17.70;41.14;98764.84;6080712;23;20221;-89
2022/01/22 15:57:00;;;;;;;3.40;2.93;;;;;;;17.54;40.57;98734.16;6082172;23;20170;-90
2022/01/22 15:59:26;;;;;;;3.40;3.10;;;;;;;17.71;40.71;98772.56;6081447;23;20174;-89
2022/01/22 16:01:56;;;;;;;3.37;3.00;;;;;;;17.79;40.89;98786.66;6105272;23;20571;-89
2022/01/22 16:04:25;;;;;;;7.23;3.10;;;;;;;17.31;40.71;98712.31;6081640;23;20194;-89
2022/01/22 16:09:29;;;;;;;3.57;3.27;;;;;;;17.78;41.08;98796.72;6105421;23;20626;-88
2022/01/22 16:12:07;;;;;;;3.57;3.27;;;;;;;17.94;40.50;98830.88;6089006;23;20166;-87
2022/01/22 16:14:47;;;;;;;4.13;3.10;;;;;;;17.66;41.02;98783.22;6089965;23;20229;-89
2022/01/22 16:17:18;;;;;;;3.40;3.10;;;;;;;17.71;40.55;98797.13;6081363;23;20175;-86
2022/01/22 16:19:47;;;;;;;5.70;3.33;;;;;;;17.70;40.77;98797.88;6081972;23;20233;-89
2022/01/22 16:22:13;;;;;;;3.97;3.10;;;;;;;17.70;41.21;98803.88;6081591;23;20201;-89
2022/01/22 16:24:40;;;;;;;3.50;3.13;;;;;;;17.36;41.18;98741.44;6081190;23;20190;-88
2022/01/22 16:27:06;;;;;;;4.73;3.30;;;;;;;17.13;41.04;98700.06;6082283;23;20197;-90
2022/01/22 16:29:33;;;;;;;4.43;3.50;;;;;;;17.66;40.77;98794.28;6080847;23;20229;-88
2022/01/22 16:32:04;;;;;;;3.87;3.03;;;;;;;17.67;40.95;98805.31;6083623;23;20634;-88
2022/01/22 16:34:31;;;;;;;3.73;3.10;;;;;;;17.78;40.88;98820.50;6080788;23;20310;-88
2022/01/22 16:36:57;;;;;;;4.83;3.30;;;;;;;17.79;41.01;98821.34;6081374;23;20174;-88
2022/01/22 16:39:24;;;;;;;3.30;2.97;;;;;;;17.81;41.32;98823.25;6129105;23;20249;-88
2022/01/22 16:41:57;;;;;;;3.97;3.43;;;;;;;17.78;41.25;98819.59;6104647;23;20194;-88
2022/01/22 16:44:32;;;;;;;3.40;3.10;;;;;;;17.34;41.04;98739.56;6083424;23;20759;-88
2022/01/22 17:25:09;;;;;;;4.03;3.63;;;;;;;16.93;41.05;98675.91;6153532;23;20886;-89
2022/01/22 17:27:36;;;;;;;5.37;3.30;;;;;;;17.49;41.02;98786.34;6081012;23;20214;-88
2022/01/22 17:30:03;;;;;;;3.70;3.37;;;;;;;17.54;41.22;98785.88;6080516;23;20213;-89
2022/01/22 17:32:29;;;;;;;3.23;2.93;;;;;;;17.75;41.06;98819.41;6079984;23;20174;-88
2022/01/22 17:34:56;;;;;;;4.60;3.53;;;;;;;17.84;41.25;98838.69;6075021;23;20206;-87
2022/01/22 17:37:23;;;;;;;3.20;2.90;;;;;;;17.31;40.84;98747.88;6074006;23;20650;-87
2022/01/22 17:39:49;;;;;;;3.33;3.03;;;;;;;18.02;40.93;98875.47;6074752;23;20662;-87
2022/01/22 17:42:19;;;;;;;6.73;3.27;;;;;;;17.91;40.89;98847.56;6075144;23;20194;-87